createdAt,value
2019-01-29T00:01:25.078Z,76.33
2019-01-29T00:04:31.721Z,77.80
2019-01-29T00:07:38.358Z,68.70
2019-01-29T00:10:44.949Z,72.47
2019-01-29T00:13:51.626Z,69.93
2019-01-29T00:16:58.252Z,73.97
2019-01-29T00:20:05.523Z,68.13
2019-01-29T00:23:12.138Z,60.57
2019-01-29T00:26:18.931Z,60.07
2019-01-29T00:29:25.528Z,49.73
2019-01-29T00:32:32.201Z,55.77
2019-01-29T00:35:38.836Z,52.60
2019-01-29T00:38:45.461Z,61.33
2019-01-29T00:41:52.125Z,51.17
2019-01-29T00:44:58.781Z,47.50
2019-01-29T00:48:05.386Z,43.90
2019-01-29T00:51:12.107Z,35.70
2019-01-29T00:54:18.790Z,47.27
2019-01-29T00:57:25.431Z,37.60
2019-01-29T01:00:32.108Z,37.47
2019-01-29T01:03:38.724Z,46.03
2019-01-29T01:06:45.334Z,40.30
2019-01-29T01:09:57.105Z,34.77
2019-01-29T01:13:00.352Z,29.07
2019-01-29T01:16:07.058Z,45.83
2019-01-29T01:19:13.736Z,55.93
2019-01-29T01:22:20.369Z,37.17
2019-01-29T01:25:27.046Z,36.10
2019-01-29T01:28:33.644Z,30.60
2019-01-29T01:31:40.321Z,23.00
2019-01-29T01:34:46.949Z,50.33
2019-01-29T01:37:53.706Z,39.90
2019-01-29T01:41:01.316Z,42.53
2019-01-29T01:44:08.010Z,51.53
2019-01-29T01:47:15.732Z,48.03
2019-01-29T01:50:22.322Z,62.03
2019-01-29T01:53:28.969Z,45.93
2019-01-29T01:56:35.563Z,48.67
2019-01-29T01:59:42.285Z,55.07
2019-01-29T02:02:49.000Z,47.60
2019-01-29T02:05:55.667Z,53.37
2019-01-29T02:09:02.324Z,37.57
2019-01-29T02:12:10.330Z,51.17
2019-01-29T02:15:16.964Z,42.00
2019-01-29T02:18:23.576Z,34.30
2019-01-29T02:21:30.283Z,58.43
2019-01-29T02:24:36.911Z,51.53
2019-01-29T02:27:43.591Z,42.13
2019-01-29T02:30:50.248Z,31.60
2019-01-29T02:33:56.864Z,34.43
2019-01-29T02:37:03.474Z,37.97
2019-01-29T02:40:13.266Z,41.80
2019-01-29T02:43:19.857Z,36.30
2019-01-29T02:46:26.591Z,46.70
2019-01-29T02:49:33.214Z,40.83
2019-01-29T02:52:39.853Z,31.13
2019-01-29T02:55:46.542Z,20.83
2019-01-29T02:58:53.093Z,30.50
2019-01-29T03:01:59.829Z,29.77
2019-01-29T03:05:07.225Z,30.20
2019-01-29T03:08:13.870Z,21.87
2019-01-29T03:11:20.596Z,33.27
2019-01-29T03:14:27.253Z,32.50
2019-01-29T03:17:33.976Z,29.40
2019-01-29T03:20:40.628Z,36.37
2019-01-29T03:23:47.304Z,42.40
2019-01-29T03:26:53.989Z,31.13
2019-01-29T03:30:00.833Z,28.50
2019-01-29T03:33:07.469Z,30.20
2019-01-29T03:36:14.276Z,27.90
2019-01-29T03:39:20.918Z,26.63
2019-01-29T03:42:27.537Z,29.60
2019-01-29T03:45:35.603Z,33.80
2019-01-29T03:48:42.239Z,33.00
2019-01-29T03:51:49.109Z,39.57
2019-01-29T03:54:55.726Z,39.83
2019-01-29T03:58:02.432Z,52.40
2019-01-29T04:01:09.130Z,35.13
2019-01-29T04:04:15.826Z,27.23
2019-01-29T04:07:22.494Z,40.77
2019-01-29T04:10:29.140Z,33.13
2019-01-29T04:13:35.800Z,26.30
2019-01-29T04:16:42.448Z,32.07
2019-01-29T04:19:49.266Z,33.83
2019-01-29T04:22:55.890Z,36.47
2019-01-29T04:26:02.533Z,32.27
2019-01-29T04:29:10.274Z,38.53
2019-01-29T04:32:16.879Z,29.17
2019-01-29T04:35:23.497Z,41.17
2019-01-29T04:38:30.181Z,66.67
2019-01-29T04:41:36.800Z,39.13
2019-01-29T04:44:43.412Z,62.47
2019-01-29T04:47:50.209Z,42.33
2019-01-29T04:50:56.810Z,43.43
2019-01-29T04:54:03.508Z,40.37
2019-01-29T04:57:10.252Z,36.57
2019-01-29T05:00:19.292Z,49.33
2019-01-29T05:03:25.888Z,50.43
2019-01-29T05:06:32.505Z,65.97
2019-01-29T05:09:39.214Z,62.47
2019-01-29T05:12:45.953Z,85.33
2019-01-29T05:15:52.548Z,75.07
2019-01-29T05:18:59.184Z,54.70
2019-01-29T05:22:05.888Z,74.60
2019-01-29T05:25:12.482Z,66.10
2019-01-29T05:28:19.154Z,47.30
2019-01-29T05:31:27.395Z,76.87
2019-01-29T05:34:34.020Z,99.67
2019-01-29T05:37:41.002Z,67.33
2019-01-29T05:40:49.086Z,71.30
2019-01-29T05:43:55.740Z,30.80
2019-01-29T05:47:02.373Z,52.20
2019-01-29T05:50:09.894Z,39.77
2019-01-29T05:53:16.744Z,40.97
2019-01-29T05:56:23.447Z,42.10
2019-01-29T05:59:30.098Z,22.67
2019-01-29T06:02:36.737Z,46.33
2019-01-29T06:05:43.344Z,45.10
2019-01-29T06:08:50.002Z,46.27
2019-01-29T06:11:56.638Z,45.00
2019-01-29T06:15:03.250Z,41.20
2019-01-29T06:18:09.888Z,24.73
2019-01-29T06:21:16.958Z,47.27
2019-01-29T06:24:25.815Z,43.20
2019-01-29T06:27:32.169Z,49.07
2019-01-29T06:30:38.780Z,30.57
2019-01-29T06:33:46.972Z,64.40
2019-01-29T06:36:53.628Z,42.30
2019-01-29T06:40:00.313Z,54.00
2019-01-29T06:43:06.908Z,42.40
2019-01-29T06:46:13.560Z,59.00
2019-01-29T06:49:20.253Z,41.23
2019-01-29T06:52:26.994Z,37.67
2019-01-29T06:55:33.698Z,42.47
2019-01-29T06:58:40.406Z,49.50
2019-01-29T07:01:47.111Z,49.50
2019-01-29T07:04:53.942Z,60.20
2019-01-29T07:08:00.660Z,83.03
2019-01-29T07:11:07.254Z,88.13
2019-01-29T07:14:13.860Z,62.07
2019-01-29T07:17:30.344Z,65.10
2019-01-29T07:20:36.990Z,42.40
2019-01-29T07:23:43.596Z,50.13
2019-01-29T07:26:50.188Z,45.43
2019-01-29T07:29:56.877Z,54.73
2019-01-29T07:33:03.514Z,51.50
2019-01-29T07:36:10.106Z,44.50
2019-01-29T07:39:16.784Z,39.70
2019-01-29T07:42:23.494Z,59.80
2019-01-29T07:45:30.233Z,74.93
2019-01-29T07:48:36.874Z,77.57
2019-01-29T07:51:43.522Z,68.23
2019-01-29T07:54:51.213Z,56.30
2019-01-29T07:57:58.194Z,69.73
2019-01-29T08:01:05.064Z,68.00
2019-01-29T08:04:11.702Z,76.00
2019-01-29T08:07:18.424Z,83.13
2019-01-29T08:10:25.047Z,74.50
2019-01-29T08:13:31.730Z,75.50
2019-01-29T08:16:38.413Z,76.20
2019-01-29T08:19:45.086Z,86.60
2019-01-29T08:22:51.714Z,70.80
2019-01-29T08:25:58.308Z,92.07
2019-01-29T08:29:05.036Z,108.57
2019-01-29T08:32:13.328Z,109.30
2019-01-29T08:35:20.065Z,104.20
2019-01-29T08:38:26.689Z,112.43
2019-01-29T08:41:33.456Z,153.37
2019-01-29T08:44:40.087Z,140.07
2019-01-29T08:47:46.756Z,125.30
2019-01-29T08:50:53.341Z,73.37
2019-01-29T08:54:00.123Z,71.17
2019-01-29T08:57:06.802Z,92.47
2019-01-29T09:00:15.619Z,93.63
2019-01-29T09:03:22.319Z,101.03
2019-01-29T09:06:28.931Z,98.53
2019-01-29T09:09:35.631Z,96.27
2019-01-29T09:12:42.312Z,106.03
2019-01-29T09:15:48.925Z,103.73
2019-01-29T09:18:55.604Z,115.60
2019-01-29T09:22:02.281Z,176.37
2019-01-29T09:25:19.251Z,183.03
2019-01-29T09:28:18.893Z,113.00
2019-01-29T09:31:25.626Z,118.63
2019-01-29T09:34:33.368Z,110.90
2019-01-29T09:37:40.059Z,118.97
2019-01-29T09:40:46.714Z,105.13
2019-01-29T09:43:53.437Z,121.73
2019-01-29T09:47:00.209Z,126.80
2019-01-29T09:50:07.285Z,75.43
2019-01-29T09:53:13.916Z,97.50
2019-01-29T09:56:21.055Z,71.53
2019-01-29T09:59:27.699Z,88.53
2019-01-29T10:02:34.339Z,109.97
2019-01-29T10:05:41.798Z,81.87
2019-01-29T10:08:48.515Z,106.53
2019-01-29T10:11:55.210Z,98.30
2019-01-29T10:15:01.939Z,82.67
2019-01-29T10:18:08.640Z,109.43
2019-01-29T10:21:15.350Z,102.40
2019-01-29T10:24:21.939Z,99.87
2019-01-29T10:27:28.586Z,109.20
2019-01-29T10:30:35.337Z,127.27
2019-01-29T10:33:42.766Z,139.00
2019-01-29T10:36:49.487Z,152.60
2019-01-29T10:39:56.154Z,87.33
2019-01-29T10:43:02.873Z,142.07
2019-01-29T10:46:09.505Z,93.43
2019-01-29T10:49:16.182Z,102.50
2019-01-29T10:52:23.069Z,99.20
2019-01-29T10:55:29.708Z,96.97
2019-01-29T10:58:36.371Z,116.50
2019-01-29T11:01:43.153Z,96.83
2019-01-29T11:04:49.793Z,89.37
2019-01-29T11:07:56.509Z,72.40
2019-01-29T11:11:03.165Z,78.90
2019-01-29T11:14:09.899Z,79.47
2019-01-29T11:17:16.643Z,83.30
2019-01-29T11:20:23.365Z,88.87
2019-01-29T11:23:30.242Z,86.87
2019-01-29T11:26:36.879Z,80.83
2019-01-29T11:29:43.481Z,91.27
2019-01-29T11:32:50.093Z,109.93
2019-01-29T11:35:57.800Z,124.33
2019-01-29T11:39:06.429Z,115.73
2019-01-29T11:42:13.157Z,92.57
2019-01-29T11:45:22.972Z,81.87
2019-01-29T11:48:29.841Z,117.87
2019-01-29T11:51:36.575Z,110.17
2019-01-29T11:54:44.725Z,134.77
2019-01-29T11:57:51.475Z,123.57
2019-01-29T12:01:19.333Z,130.60
2019-01-29T12:04:26.073Z,98.27
2019-01-29T12:07:32.733Z,102.63
2019-01-29T12:10:39.439Z,128.90
2019-01-29T12:13:46.273Z,113.30
2019-01-29T12:16:52.874Z,112.67
2019-01-29T12:19:59.667Z,102.70
2019-01-29T12:23:06.429Z,109.57
2019-01-29T12:26:13.565Z,125.97
2019-01-29T12:29:21.994Z,112.57
2019-01-29T12:32:30.835Z,104.00
2019-01-29T12:35:37.528Z,119.10
2019-01-29T12:38:44.226Z,125.07
2019-01-29T12:41:50.955Z,145.57
2019-01-29T12:44:57.655Z,137.83
2019-01-29T12:48:04.331Z,128.50
2019-01-29T12:51:27.411Z,108.83
2019-01-29T12:54:34.079Z,107.53
2019-01-29T12:57:40.795Z,84.70
2019-01-29T13:00:57.869Z,117.77
2019-01-29T13:04:04.542Z,107.33
2019-01-29T13:07:11.296Z,102.13
2019-01-29T13:10:19.877Z,116.17
2019-01-29T13:13:26.524Z,101.90
2019-01-29T13:16:33.169Z,124.03
2019-01-29T13:19:39.847Z,109.57
2019-01-29T13:22:46.505Z,112.50
2019-01-29T13:25:53.157Z,100.53
2019-01-29T13:28:59.845Z,85.80
2019-01-29T13:32:06.479Z,117.13
2019-01-29T13:35:13.276Z,108.90
2019-01-29T13:38:20.019Z,92.23
2019-01-29T13:41:26.697Z,130.83
2019-01-29T13:44:33.435Z,144.70
2019-01-29T13:47:40.077Z,157.57
2019-01-29T13:50:49.959Z,122.57
2019-01-29T13:53:56.699Z,126.07
2019-01-29T13:57:04.384Z,106.57
2019-01-29T14:00:20.631Z,96.97
2019-01-29T14:03:28.315Z,98.73
2019-01-29T14:06:35.027Z,86.30
2019-01-29T14:09:41.779Z,105.73
2019-01-29T14:12:48.434Z,116.13
2019-01-29T14:16:00.018Z,147.93
2019-01-29T14:19:06.652Z,154.33
2019-01-29T14:22:13.369Z,138.60
2019-01-29T14:25:20.005Z,140.53
2019-01-29T14:28:26.709Z,150.77
2019-01-29T14:31:33.357Z,117.30
2019-01-29T14:34:40.034Z,118.43
2019-01-29T14:38:48.493Z,72.97
2019-01-29T14:41:55.192Z,55.10
2019-01-29T14:45:03.191Z,61.77
2019-01-29T14:48:09.863Z,62.50
2019-01-29T14:51:16.498Z,64.00
2019-01-29T14:54:24.837Z,76.60
2019-01-29T14:57:32.135Z,141.83
2019-01-29T15:00:38.825Z,94.37
2019-01-29T15:03:45.476Z,59.67
2019-01-29T15:06:52.115Z,163.30
2019-01-29T15:09:58.899Z,197.33
2019-01-29T15:13:05.872Z,102.97
2019-01-29T15:16:30.375Z,102.50
2019-01-29T15:19:37.352Z,86.83
2019-01-29T15:22:43.984Z,91.07
2019-01-29T15:25:50.636Z,83.10
2019-01-29T15:28:57.349Z,81.50
2019-01-29T15:32:04.019Z,116.37
2019-01-29T15:35:10.768Z,81.43
2019-01-29T15:38:18.318Z,110.57
2019-01-29T15:41:25.284Z,93.60
2019-01-29T15:44:31.941Z,95.50
2019-01-29T15:47:38.722Z,92.80
2019-01-29T15:50:45.419Z,97.85
2019-01-29T15:53:52.174Z,62.93
2019-01-29T15:56:58.902Z,66.23
2019-01-29T16:00:08.296Z,105.63
2019-01-29T16:03:15.343Z,130.07
2019-01-29T16:06:22.116Z,162.37
2019-01-29T16:09:28.882Z,116.30
2019-01-29T16:12:35.865Z,52.77
2019-01-29T16:15:42.957Z,72.17
2019-01-29T16:18:49.638Z,115.43
2019-01-29T16:21:56.380Z,109.73
2019-01-29T16:25:03.201Z,77.93
2019-01-29T16:28:10.175Z,106.73
2019-01-29T16:31:16.875Z,105.90
2019-01-29T16:34:23.645Z,71.60
2019-01-29T16:37:30.457Z,88.10
2019-01-29T16:40:37.317Z,165.43
2019-01-29T16:43:44.023Z,147.67
2019-01-29T16:46:50.796Z,499.33
2019-01-29T16:49:57.482Z,363.93
2019-01-29T16:53:04.435Z,280.07
2019-01-29T16:56:11.068Z,288.30
2019-01-29T16:59:17.902Z,171.70
2019-01-29T17:02:24.648Z,185.97
2019-01-29T17:05:31.407Z,238.57
2019-01-29T17:08:38.074Z,310.33
2019-01-29T17:11:44.913Z,309.57
2019-01-29T17:14:51.606Z,502.57
2019-01-29T17:17:59.975Z,558.93
2019-01-29T17:21:06.754Z,483.30
2019-01-29T17:24:13.528Z,417.23
2019-01-29T17:27:20.264Z,404.67
2019-01-29T17:30:43.626Z,369.00
2019-01-29T17:33:50.574Z,333.90
2019-01-29T17:37:00.014Z,207.03
2019-01-29T17:40:18.225Z,183.97
2019-01-29T17:43:25.076Z,139.70
2019-01-29T17:46:31.820Z,170.73
2019-01-29T17:49:38.620Z,281.40
2019-01-29T17:52:45.416Z,388.67
2019-01-29T17:55:52.298Z,478.07
2019-01-29T17:58:59.410Z,345.33
2019-01-29T18:02:06.338Z,415.40
2019-01-29T18:05:13.106Z,264.07
2019-01-29T18:08:19.808Z,233.13
2019-01-29T18:11:26.470Z,206.90
2019-01-29T18:14:33.531Z,164.07
2019-01-29T18:17:41.366Z,267.73
2019-01-29T18:20:48.126Z,289.13
2019-01-29T18:23:54.910Z,310.37
2019-01-29T18:27:01.690Z,341.23
2019-01-29T18:30:11.872Z,386.17
2019-01-29T18:33:18.590Z,432.73
2019-01-29T18:36:25.382Z,478.43
2019-01-29T18:39:32.360Z,581.13
2019-01-29T18:42:39.112Z,603.70
2019-01-29T18:45:45.870Z,585.27
2019-01-29T18:48:52.594Z,532.07
2019-01-29T18:51:59.465Z,462.03
2019-01-29T18:55:06.302Z,523.80
2019-01-29T18:58:15.053Z,581.97
2019-01-29T19:01:21.438Z,685.53
2019-01-29T19:04:28.508Z,565.03
2019-01-29T19:07:35.385Z,503.00
2019-01-29T19:10:42.953Z,452.10
2019-01-29T19:13:49.750Z,452.10
2019-01-29T19:16:56.649Z,440.73
2019-01-29T19:20:03.626Z,435.10
2019-01-29T19:23:10.678Z,393.43
2019-01-29T19:26:17.784Z,378.43
2019-01-29T19:29:24.738Z,392.67
2019-01-29T19:32:31.540Z,399.10
2019-01-29T19:35:38.443Z,376.83
2019-01-29T19:38:46.887Z,471.20
2019-01-29T19:41:53.642Z,492.03
2019-01-29T19:45:00.485Z,460.07
2019-01-29T19:48:09.324Z,453.77
2019-01-29T19:51:17.402Z,325.03
2019-01-29T19:54:24.186Z,319.00
2019-01-29T19:57:31.005Z,491.13
2019-01-29T20:00:40.056Z,459.70
2019-01-29T20:03:46.910Z,518.70
2019-01-29T20:06:53.657Z,417.97
2019-01-29T20:10:02.243Z,430.53
2019-01-29T20:13:09.189Z,488.03
2019-01-29T20:16:15.910Z,508.53
2019-01-29T20:19:22.602Z,508.53
2019-01-29T20:22:29.323Z,540.27
2019-01-29T20:25:36.094Z,495.13
2019-01-29T20:28:43.061Z,491.63
2019-01-29T20:31:50.131Z,494.83
2019-01-29T20:34:56.880Z,505.53
2019-01-29T20:38:03.684Z,496.67
2019-01-29T20:41:12.854Z,507.03
2019-01-29T20:44:19.982Z,499.53
2019-01-29T20:47:26.733Z,397.23
2019-01-29T20:50:35.044Z,451.63
2019-01-29T20:53:41.882Z,480.23
2019-01-29T20:56:48.674Z,552.27
2019-01-29T20:59:55.378Z,838.27
2019-01-29T21:03:02.146Z,679.40
2019-01-29T21:06:08.976Z,581.47
2019-01-29T21:09:15.689Z,417.13
2019-01-29T21:12:22.497Z,440.37
2019-01-29T21:15:38.142Z,452.93
2019-01-29T21:18:41.024Z,366.80
2019-01-29T21:21:49.302Z,385.73
2019-01-29T21:24:56.106Z,383.80
2019-01-29T21:28:02.810Z,412.80
2019-01-29T21:31:09.832Z,465.10
2019-01-29T21:34:16.661Z,512.73
2019-01-29T21:37:23.534Z,559.50
2019-01-29T21:40:30.234Z,476.10
2019-01-29T21:43:37.011Z,396.30
2019-01-29T21:46:44.750Z,357.63
2019-01-29T21:49:51.640Z,393.07
2019-01-29T21:52:58.492Z,352.73
2019-01-29T21:56:05.204Z,372.87
2019-01-29T21:59:13.349Z,271.63
2019-01-29T22:02:20.220Z,211.47
2019-01-29T22:05:27.094Z,211.57
2019-01-29T22:08:33.958Z,253.37
2019-01-29T22:11:40.680Z,259.17
2019-01-29T22:14:47.574Z,250.57
2019-01-29T22:17:54.278Z,238.90
2019-01-29T22:21:01.073Z,218.47
2019-01-29T22:24:07.850Z,267.87
2019-01-29T22:27:14.920Z,207.30
2019-01-29T22:30:24.679Z,244.73
2019-01-29T22:33:32.370Z,235.23
2019-01-29T22:36:39.084Z,302.07
2019-01-29T22:39:47.047Z,295.73
2019-01-29T22:42:53.893Z,538.20
2019-01-29T22:46:00.658Z,590.77
2019-01-29T22:49:07.442Z,462.23
2019-01-29T22:52:14.125Z,317.80
2019-01-29T22:55:20.930Z,278.47
2019-01-29T22:58:27.603Z,204.30
2019-01-29T23:01:39.220Z,411.10
2019-01-29T23:04:47.311Z,454.47
2019-01-29T23:07:54.060Z,283.93
2019-01-29T23:11:00.866Z,212.67
2019-01-29T23:14:07.597Z,225.93
2019-01-29T23:17:14.253Z,213.33
2019-01-29T23:20:21.052Z,171.87
2019-01-29T23:23:27.741Z,193.67
2019-01-29T23:26:34.621Z,201.30
2019-01-29T23:29:43.579Z,251.60
2019-01-29T23:32:49.907Z,251.43
2019-01-29T23:35:56.715Z,285.60
2019-01-29T23:39:04.888Z,375.50
2019-01-29T23:42:11.527Z,320.57
2019-01-29T23:45:18.221Z,372.57
2019-01-29T23:48:24.936Z,306.30
2019-01-29T23:51:32.035Z,268.73
2019-01-29T23:54:38.778Z,272.73
2019-01-29T23:57:45.516Z,264.17
